Dallas, TX (75225)

5:44 PM CDT on August 24, 2016 (GMT -0500)
| | Change Station

Elev -9999 ft 0.00 °N, 0.00 °E | Updated

Clear
Clear
91 °F
Feels Like 95 °F
N
14
Wind Variable Wind from SSE
Gusts 20 mph

Today
High -- | Low -- °F
--% Chance of Precip.
Yesterday
High -- | Low -- °F
Precip. -- in
Pressure 30.01 in
Visibility 10.0 miles
Clouds Few 5500 ft
Scattered Clouds 30000 ft
Heat Index 95 °F
Dew Point 68 °F
Humidity 47%
Rainfall --
Snow Depth Not available.
6:56 AM 8:01 PM
Waning Gibbous, 52% visible
METAR KDAL 242153Z 16017G22KT 10SM FEW055 SCT300 34/21 A3003 RMK AO2 SLP162 T03440206 $
Pressure 30.01 in
Visibility 10.0 miles
Clouds Few 5500 ft
Scattered Clouds 30000 ft
Heat Index 95 °F
Dew Point 68 °F
Humidity 47%
Rainfall --
Snow Depth Not available.
6:56 AM 8:01 PM
Waning Gibbous, 52% visible
METAR KDAL 242153Z 16017G22KT 10SM FEW055 SCT300 34/21 A3003 RMK AO2 SLP162 T03440206 $

10-Day Weather Forecast

Almanac

Astronomy

Aug. 24, 2016 Rise Set
Actual Time
Civil Twilight
Nautical Twilight
Astronomical Twilight
Moon
Length of Visible Light
Length of Day
Tomorrow will be .
, % of the Moon is Illuminated

Today's Extremes

State Highs State Lows

Community

WunderPhotos

Upload Photos

1,934,728 photos uploaded!

WunderBlog® & News

Nearby

Air Quality

  Air Quality AQ Index Pollutant
Not available.

Snow Depth

Station Depth Elevation

Earthquake Activity

City Distance Mag. Time & Date
Minimum magnitude displayed is 2.5.

Coastal Water Temperatures

Place Temperature

Stations

Nearby Weather Stations

Station Location Temp. Windchill Dew Point Humidity Wind Precip. Elev Updated Type
                   

Watches & Warnings

There are currently no watches in effect.